createdAt,value
2022-08-31T07:22:03.177Z,20.61
2022-08-31T07:23:04.110Z,20.70
2022-08-31T07:24:03.470Z,20.91
2022-08-31T07:53:53.320Z,19.77
2022-08-31T07:54:54.737Z,19.83
2022-08-31T07:55:54.751Z,19.84
2022-08-31T07:56:54.284Z,19.87
2022-08-31T07:57:54.272Z,20.24
2022-08-31T07:58:54.239Z,19.68
2022-08-31T07:59:54.277Z,19.00
2022-08-31T08:00:54.361Z,19.50
2022-08-31T08:01:54.305Z,19.76
2022-08-31T08:02:54.281Z,19.33
2022-08-31T08:03:54.179Z,19.19
2022-08-31T08:04:54.175Z,18.75
2022-08-31T08:05:54.263Z,18.90
2022-08-31T08:06:54.212Z,18.72
2022-08-31T08:07:54.864Z,18.92
2022-08-31T08:09:21.583Z,18.81
2022-08-31T08:09:54.109Z,18.48
2022-08-31T08:10:54.111Z,18.03
2022-08-31T08:11:54.082Z,18.32
2022-08-31T08:12:54.049Z,18.54
2022-08-31T08:13:54.080Z,18.85
2022-08-31T08:14:54.048Z,18.52
2022-08-31T08:15:54.117Z,18.80
2022-08-31T08:16:54.005Z,18.91
2022-08-31T08:17:53.992Z,19.22
2022-08-31T08:18:54.016Z,18.84
2022-08-31T08:19:53.980Z,18.99
2022-08-31T08:20:54.030Z,19.06
2022-08-31T08:21:53.955Z,19.11
2022-08-31T08:22:55.321Z,18.55
2022-08-31T08:23:53.937Z,18.02
2022-08-31T08:24:53.955Z,18.07
2022-08-31T08:25:53.896Z,18.39
2022-08-31T08:26:54.584Z,18.45
2022-08-31T08:27:53.867Z,18.30
2022-08-31T08:28:53.875Z,18.42
2022-08-31T08:29:53.854Z,18.33
2022-08-31T08:30:53.843Z,18.11
2022-08-31T08:31:53.898Z,18.29
2022-08-31T08:32:53.810Z,18.41
2022-08-31T08:33:53.802Z,18.37
2022-08-31T08:34:53.818Z,17.90
2022-08-31T08:35:53.815Z,18.05
2022-08-31T08:36:53.819Z,18.41
2022-08-31T08:37:59.341Z,18.70
2022-08-31T08:38:55.747Z,18.48
2022-08-31T08:39:53.754Z,18.75
2022-08-31T08:40:53.728Z,18.82
2022-08-31T08:41:53.834Z,18.66
2022-08-31T08:42:53.718Z,18.69
2022-08-31T08:43:53.684Z,18.41
2022-08-31T08:44:53.696Z,18.90
2022-08-31T08:45:53.690Z,19.10
2022-08-31T08:46:53.703Z,19.37
2022-08-31T08:47:53.691Z,19.68
2022-08-31T08:48:55.852Z,19.91
2022-08-31T08:49:54.575Z,19.80
2022-08-31T08:50:54.608Z,19.80
2022-08-31T08:51:53.624Z,19.92
2022-08-31T08:52:53.606Z,19.41
2022-08-31T08:53:53.601Z,19.77
2022-08-31T08:54:53.564Z,20.10
2022-08-31T08:55:53.545Z,19.94
2022-08-31T08:56:53.573Z,20.21
2022-08-31T08:57:53.544Z,19.88
2022-08-31T08:58:53.535Z,19.68
2022-08-31T08:59:53.533Z,19.87
2022-08-31T09:00:53.513Z,19.95
2022-08-31T09:01:53.572Z,19.59
2022-08-31T09:02:53.582Z,19.18
2022-08-31T09:03:53.472Z,19.54
2022-08-31T09:04:53.439Z,19.78
2022-08-31T09:05:53.442Z,20.06
2022-08-31T09:06:54.449Z,20.39
2022-08-31T09:07:53.417Z,20.29
2022-08-31T09:08:53.408Z,20.31
2022-08-31T09:09:53.395Z,20.39
2022-08-31T09:10:53.395Z,20.54
2022-08-31T09:11:53.380Z,20.18
2022-08-31T09:12:53.391Z,20.36
2022-08-31T09:13:53.381Z,20.51
2022-08-31T09:14:53.323Z,20.77
2022-08-31T09:15:53.361Z,20.70
2022-08-31T09:16:53.309Z,20.73
2022-08-31T09:17:55.834Z,21.03
2022-08-31T09:18:53.267Z,21.01
2022-08-31T09:19:53.266Z,20.18
2022-08-31T09:20:53.240Z,19.88
2022-08-31T09:21:53.226Z,20.14
2022-08-31T09:22:53.247Z,20.62
2022-08-31T09:23:53.228Z,20.79
2022-08-31T09:24:53.203Z,20.91
2022-08-31T09:25:53.197Z,20.73
2022-08-31T09:26:53.179Z,20.87
2022-08-31T09:27:53.157Z,20.51
2022-08-31T09:28:53.178Z,20.41
2022-08-31T09:29:53.167Z,20.28
2022-08-31T09:30:53.244Z,20.77
2022-08-31T09:31:55.877Z,20.32
2022-08-31T09:32:53.094Z,20.16
2022-08-31T09:33:53.158Z,20.48
2022-08-31T09:34:53.079Z,20.18
2022-08-31T09:35:53.240Z,20.16
2022-08-31T09:36:53.697Z,19.61
2022-08-31T09:37:53.531Z,19.18
2022-08-31T09:38:53.115Z,18.85
2022-08-31T09:39:53.273Z,19.54
2022-08-31T09:40:53.195Z,19.86
2022-08-31T09:41:53.516Z,20.32
2022-08-31T09:42:53.000Z,20.52
2022-08-31T09:43:52.955Z,20.66
2022-08-31T09:44:52.966Z,20.76
2022-08-31T09:45:53.394Z,20.87
2022-08-31T09:46:52.950Z,20.95
2022-08-31T09:47:52.936Z,21.14
2022-08-31T09:48:52.903Z,20.85
2022-08-31T09:49:52.922Z,20.76
2022-08-31T09:50:52.909Z,20.29
2022-08-31T09:51:52.861Z,20.36
2022-08-31T09:52:52.850Z,20.08
2022-08-31T09:53:52.843Z,20.50
2022-08-31T09:54:52.913Z,20.95
2022-08-31T09:55:52.841Z,20.92
2022-08-31T09:56:52.828Z,20.36
2022-08-31T09:57:52.845Z,20.20
2022-08-31T09:58:52.793Z,19.84
2022-08-31T09:59:52.796Z,20.17
2022-08-31T10:00:53.173Z,20.70
2022-08-31T10:01:52.779Z,20.66
2022-08-31T10:02:52.768Z,20.92
2022-08-31T10:03:52.715Z,21.04
2022-08-31T10:04:52.754Z,21.22
2022-08-31T10:05:52.788Z,20.69
2022-08-31T10:06:52.690Z,20.67
2022-08-31T10:07:52.680Z,20.67
2022-08-31T10:08:52.690Z,20.41
2022-08-31T10:09:57.825Z,20.69
2022-08-31T10:10:52.638Z,20.61
2022-08-31T10:11:52.671Z,20.18
2022-08-31T10:12:52.585Z,20.23
2022-08-31T10:13:52.590Z,20.32
2022-08-31T10:14:52.655Z,20.18
2022-08-31T10:15:52.614Z,20.52
2022-08-31T10:16:52.566Z,20.38
2022-08-31T10:17:52.552Z,20.24
2022-08-31T10:18:52.532Z,20.89
2022-08-31T10:19:52.542Z,21.31
2022-08-31T10:20:52.553Z,21.92
2022-08-31T10:21:52.559Z,21.77
2022-08-31T10:23:33.068Z,22.10
2022-08-31T10:23:52.486Z,22.03
2022-08-31T10:24:52.469Z,22.22
2022-08-31T10:25:52.498Z,22.86
2022-08-31T10:26:52.443Z,23.22
2022-08-31T10:27:52.414Z,23.31
2022-08-31T10:28:52.406Z,23.27
2022-08-31T10:29:52.383Z,22.49
2022-08-31T10:30:52.476Z,21.86
2022-08-31T10:31:53.166Z,21.53
2022-08-31T10:32:52.385Z,21.40
2022-08-31T10:33:52.332Z,21.01
2022-08-31T10:34:52.330Z,20.77
2022-08-31T10:35:52.291Z,21.35
2022-08-31T10:36:52.309Z,21.38
2022-08-31T10:37:52.319Z,21.42
2022-08-31T10:38:52.276Z,20.94
2022-08-31T10:39:52.285Z,20.67
2022-08-31T10:40:53.087Z,20.84
2022-08-31T10:41:52.251Z,20.79
2022-08-31T10:42:52.254Z,21.01
2022-08-31T10:43:52.233Z,20.64
2022-08-31T10:44:52.213Z,20.58
2022-08-31T10:45:52.227Z,20.79
2022-08-31T10:46:52.232Z,21.06
2022-08-31T10:47:52.165Z,20.80
2022-08-31T10:48:52.151Z,20.62
2022-08-31T10:49:52.140Z,20.59
2022-08-31T10:50:52.148Z,20.76
2022-08-31T10:51:52.173Z,20.54
2022-08-31T10:52:52.108Z,20.28
2022-08-31T10:53:52.095Z,20.52
2022-08-31T10:54:52.112Z,20.94
2022-08-31T10:55:52.085Z,21.19
2022-08-31T10:56:52.063Z,21.52
2022-08-31T10:57:52.104Z,21.61
2022-08-31T10:58:52.022Z,21.84
2022-08-31T10:59:55.953Z,21.99
2022-08-31T11:00:52.004Z,22.06
2022-08-31T11:01:52.029Z,21.96
2022-08-31T11:02:52.008Z,21.71
2022-08-31T11:03:51.977Z,22.20
2022-08-31T11:04:51.991Z,22.24
2022-08-31T11:05:51.931Z,21.91
2022-08-31T11:06:51.960Z,22.21
2022-08-31T11:07:51.947Z,21.88
2022-08-31T11:08:51.899Z,21.71
2022-08-31T11:09:51.915Z,21.65
2022-08-31T11:10:51.876Z,21.72
2022-08-31T11:11:51.878Z,22.15
2022-08-31T11:12:51.850Z,21.98
2022-08-31T11:13:51.878Z,21.59
2022-08-31T11:14:51.838Z,21.53
2022-08-31T11:15:51.861Z,21.83
2022-08-31T11:16:51.795Z,21.94
2022-08-31T11:17:51.799Z,21.79
2022-08-31T11:18:51.797Z,21.22
2022-08-31T11:19:51.771Z,21.35
2022-08-31T11:20:51.752Z,21.62
2022-08-31T11:21:51.751Z,21.49
2022-08-31T11:22:51.733Z,21.44
2022-08-31T11:23:51.729Z,21.77
2022-08-31T11:24:51.709Z,21.31
2022-08-31T11:25:51.709Z,20.85
2022-08-31T11:26:51.698Z,20.42
2022-08-31T11:27:51.707Z,20.70
2022-08-31T11:28:51.705Z,20.58
2022-08-31T11:29:51.644Z,20.38
2022-08-31T11:30:51.732Z,20.26
2022-08-31T11:31:51.642Z,20.72
2022-08-31T11:32:51.599Z,20.67
2022-08-31T11:34:14.670Z,20.73
2022-08-31T11:34:51.593Z,20.84
2022-08-31T11:35:51.582Z,21.28
2022-08-31T11:36:51.606Z,21.54
2022-08-31T11:37:51.569Z,21.91
2022-08-31T11:38:51.516Z,21.67
2022-08-31T11:39:51.566Z,21.79
2022-08-31T11:40:51.563Z,21.29
2022-08-31T11:41:51.521Z,21.82
2022-08-31T11:42:51.483Z,22.07
2022-08-31T11:43:51.474Z,22.05
2022-08-31T11:44:51.472Z,21.31
2022-08-31T11:45:51.519Z,20.89
2022-08-31T11:46:51.456Z,20.59
2022-08-31T11:47:51.419Z,20.61
2022-08-31T11:48:51.547Z,20.66
2022-08-31T11:49:51.465Z,21.03
2022-08-31T11:50:51.398Z,21.64
2022-08-31T11:51:51.412Z,22.18
2022-08-31T11:52:51.370Z,22.82
2022-08-31T11:53:51.343Z,23.55
2022-08-31T11:54:51.368Z,23.83
2022-08-31T11:55:51.342Z,23.40
2022-08-31T11:56:51.310Z,22.52
2022-08-31T11:57:51.321Z,22.40
2022-08-31T11:58:51.291Z,22.79
2022-08-31T11:59:51.296Z,22.70
2022-08-31T12:00:52.326Z,22.39
2022-08-31T12:01:51.292Z,22.77
2022-08-31T12:02:51.298Z,22.82
2022-08-31T12:03:51.237Z,23.01
2022-08-31T12:04:51.257Z,22.37
2022-08-31T12:05:51.368Z,22.14
2022-08-31T12:06:52.019Z,22.06
2022-08-31T12:07:52.859Z,22.24
2022-08-31T12:08:51.831Z,21.96
2022-08-31T12:09:53.218Z,21.77
2022-08-31T12:10:51.970Z,21.56
2022-08-31T12:11:54.644Z,21.42
2022-08-31T12:12:51.864Z,21.44
2022-08-31T12:13:51.678Z,21.24
2022-08-31T12:14:51.773Z,21.52
2022-08-31T12:15:52.188Z,21.82
2022-08-31T12:16:51.517Z,21.99
2022-08-31T12:17:51.585Z,22.18
2022-08-31T12:18:53.510Z,22.65
2022-08-31T12:19:51.270Z,22.57
2022-08-31T12:20:51.154Z,22.73
2022-08-31T12:21:51.042Z,22.70
2022-08-31T12:22:51.038Z,22.51
2022-08-31T12:23:51.024Z,22.70
2022-08-31T12:24:51.088Z,22.76
2022-08-31T12:25:51.021Z,22.91
2022-08-31T12:26:51.054Z,23.22
2022-08-31T12:27:50.971Z,22.85
2022-08-31T12:28:51.026Z,22.62
2022-08-31T12:29:50.943Z,22.68
2022-08-31T12:30:51.354Z,22.73
2022-08-31T12:31:51.003Z,22.61
2022-08-31T12:32:50.941Z,22.51
2022-08-31T12:33:50.945Z,22.85
2022-08-31T12:34:51.133Z,22.83
2022-08-31T12:35:51.118Z,22.65
2022-08-31T12:36:50.902Z,22.45
2022-08-31T12:37:50.874Z,22.40
2022-08-31T12:38:50.888Z,22.21
2022-08-31T12:39:51.823Z,22.09
2022-08-31T12:40:50.860Z,22.31
2022-08-31T12:41:50.815Z,22.02
2022-08-31T12:42:50.806Z,22.20
2022-08-31T12:43:50.852Z,22.27
2022-08-31T12:44:50.781Z,22.46
2022-08-31T12:45:50.974Z,22.62
2022-08-31T12:46:50.772Z,22.64
2022-08-31T12:47:50.754Z,22.67
2022-08-31T12:48:50.733Z,22.17
2022-08-31T12:49:50.710Z,21.71
2022-08-31T12:50:50.729Z,21.49
2022-08-31T12:51:50.877Z,21.53
2022-08-31T12:52:50.657Z,21.32
2022-08-31T12:53:50.650Z,21.38
2022-08-31T12:54:50.646Z,21.16
2022-08-31T12:55:50.649Z,21.10
2022-08-31T12:56:51.117Z,21.17
2022-08-31T12:57:50.630Z,21.37
2022-08-31T12:58:50.594Z,21.25
2022-08-31T13:00:01.318Z,21.13
2022-08-31T13:00:51.587Z,21.01
2022-08-31T13:01:50.714Z,20.84
2022-08-31T13:02:50.694Z,20.85
2022-08-31T13:03:54.074Z,20.62
2022-08-31T13:04:50.549Z,20.67
2022-08-31T13:05:50.518Z,20.73
2022-08-31T13:06:50.642Z,20.98
2022-08-31T13:07:50.502Z,21.17
2022-08-31T13:08:50.483Z,21.21
2022-08-31T13:09:50.443Z,21.13
2022-08-31T13:10:50.488Z,20.91
2022-08-31T13:11:50.435Z,21.10
2022-08-31T13:12:50.411Z,21.10
2022-08-31T13:13:50.471Z,21.10
2022-08-31T13:14:51.101Z,21.07
2022-08-31T13:15:50.536Z,21.28
2022-08-31T13:16:50.509Z,21.12
2022-08-31T13:17:50.472Z,21.10
2022-08-31T13:18:50.492Z,21.22
2022-08-31T13:19:50.411Z,21.22
2022-08-31T13:20:50.555Z,21.16
2022-08-31T13:21:50.648Z,21.21
2022-08-31T13:22:50.751Z,21.43
2022-08-31T13:23:50.293Z,21.69
2022-08-31T13:24:54.028Z,21.59
2022-08-31T13:25:51.908Z,21.44
2022-08-31T13:26:50.329Z,21.62
2022-08-31T13:27:50.227Z,21.65
2022-08-31T13:28:50.205Z,21.64
2022-08-31T13:29:50.938Z,21.59
2022-08-31T13:30:56.233Z,21.62
2022-08-31T13:31:51.305Z,21.94
2022-08-31T13:32:50.421Z,22.10
2022-08-31T13:33:50.160Z,22.31
2022-08-31T13:34:50.793Z,22.35
2022-08-31T13:35:50.215Z,22.02
2022-08-31T13:36:52.509Z,21.83
2022-08-31T13:37:50.081Z,21.69
2022-08-31T13:38:50.086Z,21.56
2022-08-31T13:39:50.068Z,21.29
2022-08-31T13:40:51.037Z,20.92
2022-08-31T13:41:50.076Z,20.94
2022-08-31T13:42:54.358Z,20.97
2022-08-31T13:43:50.303Z,20.92
2022-08-31T13:44:50.024Z,20.89
2022-08-31T13:45:50.054Z,21.03
2022-08-31T13:46:50.082Z,21.09
2022-08-31T13:47:57.297Z,20.97
2022-08-31T13:48:50.791Z,21.06
2022-08-31T13:49:49.944Z,20.82
2022-08-31T13:50:52.286Z,20.80
2022-08-31T13:51:50.007Z,20.50
2022-08-31T13:53:04.119Z,20.62
2022-08-31T13:53:49.913Z,20.51
2022-08-31T13:54:49.942Z,20.32
2022-08-31T13:55:49.859Z,20.17
2022-08-31T13:56:49.921Z,20.17
2022-08-31T13:57:49.973Z,20.39
2022-08-31T13:58:49.847Z,20.36
2022-08-31T13:59:49.840Z,20.54
2022-08-31T14:00:49.870Z,20.35
2022-08-31T14:01:49.823Z,20.35
2022-08-31T14:02:49.871Z,20.42
2022-08-31T14:03:49.850Z,20.55
2022-08-31T14:04:49.775Z,20.77
2022-08-31T14:05:49.859Z,20.54
2022-08-31T14:06:49.890Z,20.31
2022-08-31T14:07:49.746Z,20.01
2022-08-31T14:08:50.767Z,19.94
2022-08-31T14:09:49.696Z,20.06
2022-08-31T14:10:49.675Z,20.20
2022-08-31T14:11:49.671Z,20.16
2022-08-31T14:12:49.690Z,20.13
2022-08-31T14:13:49.653Z,20.18
2022-08-31T14:14:49.680Z,20.06
2022-08-31T14:15:49.786Z,20.14
2022-08-31T14:16:52.153Z,20.18
2022-08-31T14:18:49.663Z,20.42
2022-08-31T14:19:49.619Z,20.41
2022-08-31T14:21:10.241Z,20.59
2022-08-31T14:21:50.549Z,20.52
2022-08-31T14:22:49.616Z,20.62
2022-08-31T14:23:49.552Z,20.82
2022-08-31T14:24:49.534Z,20.85
2022-08-31T14:25:49.482Z,20.79
2022-08-31T14:26:49.487Z,21.01
2022-08-31T14:27:49.490Z,20.85
2022-08-31T14:28:49.501Z,20.76
2022-08-31T14:51:05.204Z,21.38
2022-08-31T14:52:05.410Z,21.07
2022-08-31T14:53:05.773Z,20.89
2022-08-31T14:54:05.289Z,20.77
2022-08-31T14:55:05.006Z,20.91
2022-08-31T14:56:05.058Z,20.98
2022-08-31T14:57:04.961Z,20.99
2022-08-31T14:58:04.987Z,21.01
2022-08-31T14:59:05.138Z,21.28
2022-08-31T15:00:05.282Z,21.40
2022-08-31T15:01:05.387Z,21.54
2022-08-31T15:02:10.290Z,21.68
2022-08-31T15:03:04.996Z,21.68
2022-08-31T15:04:04.983Z,21.96
2022-08-31T15:05:04.968Z,22.18
2022-08-31T15:06:05.264Z,22.06
2022-08-31T15:07:09.750Z,22.05
2022-08-31T15:08:06.108Z,21.82
2022-08-31T15:09:04.969Z,21.90
2022-08-31T15:10:05.361Z,21.94
2022-08-31T15:11:04.934Z,22.15
2022-08-31T15:12:04.858Z,22.12
2022-08-31T15:13:04.895Z,21.42
2022-08-31T15:14:04.813Z,21.53
2022-08-31T15:15:05.025Z,21.35
2022-08-31T15:16:04.933Z,21.54
2022-08-31T15:17:04.819Z,21.58
2022-08-31T15:18:04.667Z,21.77
2022-08-31T15:19:05.149Z,21.72
2022-08-31T15:20:04.709Z,21.47
2022-08-31T15:21:04.704Z,21.68
2022-08-31T15:22:04.775Z,21.47
2022-08-31T15:23:04.870Z,21.71
2022-08-31T15:24:04.681Z,21.62
2022-08-31T15:25:04.744Z,21.59
2022-08-31T15:26:04.719Z,21.59
2022-08-31T15:27:04.614Z,21.44
2022-08-31T15:28:04.806Z,21.21
2022-08-31T15:29:04.916Z,20.99
2022-08-31T15:30:05.819Z,20.79
2022-08-31T15:38:26.487Z,20.89
2022-08-31T15:39:26.659Z,20.80
2022-08-31T15:40:26.507Z,21.03
2022-08-31T15:41:26.201Z,21.14
2022-08-31T15:42:26.159Z,21.27
2022-08-31T15:43:26.149Z,21.43
2022-08-31T15:44:26.156Z,21.62
2022-08-31T15:45:26.218Z,21.59
2022-08-31T15:46:26.163Z,21.31
2022-08-31T15:47:26.131Z,21.58
2022-08-31T15:48:26.098Z,21.42
2022-08-31T15:49:26.082Z,21.35
2022-08-31T15:53:24.322Z,21.46
2022-08-31T15:54:24.218Z,21.38
2022-08-31T15:55:24.606Z,21.61
2022-08-31T15:56:23.860Z,21.64
2022-08-31T15:57:23.857Z,21.91
2022-08-31T15:58:25.317Z,22.17
2022-08-31T15:59:23.781Z,22.28
2022-08-31T16:00:24.057Z,22.28
2022-08-31T16:01:23.783Z,22.12
2022-08-31T16:02:23.795Z,21.90
2022-08-31T16:03:23.726Z,21.68
2022-08-31T16:04:23.735Z,21.25
2022-08-31T16:05:23.706Z,21.13
2022-08-31T16:06:23.678Z,21.24
2022-08-31T16:07:23.655Z,21.16
2022-08-31T16:08:23.661Z,21.07
2022-08-31T16:09:23.634Z,20.98
2022-08-31T16:10:23.721Z,21.06
2022-08-31T16:11:23.625Z,21.13
2022-08-31T16:12:23.590Z,21.24
2022-08-31T16:13:23.598Z,20.99
2022-08-31T16:14:23.573Z,21.06
2022-08-31T16:15:25.010Z,21.12
2022-08-31T16:16:23.599Z,21.17
2022-08-31T16:17:23.539Z,21.06
2022-08-31T16:18:23.563Z,21.06
2022-08-31T16:19:35.161Z,21.19
2022-08-31T16:20:23.535Z,20.94
2022-08-31T16:21:24.612Z,20.59
2022-08-31T16:22:25.749Z,20.67
2022-08-31T16:23:24.615Z,20.62
2022-08-31T16:24:24.589Z,20.39
2022-08-31T16:25:24.600Z,20.58
2022-08-31T16:26:24.534Z,20.58
2022-08-31T16:27:24.544Z,20.39
2022-08-31T16:28:24.515Z,20.41
2022-08-31T16:29:24.549Z,20.38
2022-08-31T16:30:24.510Z,20.52
2022-08-31T16:31:24.754Z,20.55
2022-08-31T16:32:25.158Z,20.67
2022-08-31T16:33:24.455Z,20.74
2022-08-31T16:34:24.503Z,20.77
2022-08-31T16:35:24.446Z,20.79
2022-08-31T16:36:24.418Z,20.72
2022-08-31T16:37:24.397Z,20.41
2022-08-31T16:38:24.407Z,20.41
2022-08-31T16:39:27.902Z,20.38
2022-08-31T16:40:24.420Z,20.55
2022-08-31T16:41:24.937Z,20.35
2022-08-31T16:42:24.335Z,20.33
2022-08-31T16:43:24.345Z,20.21
2022-08-31T16:44:24.329Z,20.10
2022-08-31T16:45:24.409Z,20.08
2022-08-31T16:46:40.151Z,20.17
2022-08-31T16:47:24.341Z,19.99
2022-08-31T16:48:24.280Z,19.98
2022-08-31T16:49:24.257Z,19.99
2022-08-31T16:50:24.241Z,20.05
2022-08-31T16:51:24.267Z,20.18
2022-08-31T16:52:24.258Z,20.39
2022-08-31T16:53:24.221Z,20.35
2022-08-31T16:54:24.229Z,20.48
2022-08-31T16:55:24.200Z,20.61
2022-08-31T16:56:24.200Z,20.67
2022-08-31T16:57:24.163Z,20.73
2022-08-31T16:58:47.619Z,20.64
2022-08-31T16:59:24.146Z,20.66
2022-08-31T17:00:28.971Z,20.61
2022-08-31T17:01:24.200Z,20.62
2022-08-31T17:02:24.190Z,20.76
2022-08-31T17:03:24.104Z,20.67
2022-08-31T17:04:48.104Z,20.58
2022-08-31T17:05:24.072Z,20.36
2022-08-31T17:06:24.096Z,20.38
2022-08-31T17:07:24.245Z,20.39
2022-08-31T17:08:24.035Z,20.33
2022-08-31T17:09:24.010Z,20.33
2022-08-31T17:10:24.004Z,20.48
2022-08-31T17:11:24.018Z,20.24
2022-08-31T17:12:23.985Z,20.36
2022-08-31T17:13:23.979Z,20.21
2022-08-31T17:14:23.942Z,20.33
2022-08-31T17:15:23.946Z,20.36
2022-08-31T17:16:23.950Z,20.33
2022-08-31T17:17:23.930Z,20.31
2022-08-31T17:18:23.941Z,20.14
2022-08-31T17:19:23.894Z,20.11
2022-08-31T17:20:24.069Z,20.01
2022-08-31T17:21:23.883Z,20.10
2022-08-31T17:22:29.858Z,20.20
2022-08-31T17:23:24.847Z,20.23
2022-08-31T17:24:23.842Z,20.16
2022-08-31T17:25:23.832Z,20.11
2022-08-31T17:26:23.810Z,20.16
2022-08-31T17:27:23.847Z,20.16
2022-08-31T17:28:23.796Z,20.08
2022-08-31T17:29:23.816Z,20.13
2022-08-31T17:30:23.820Z,20.05
2022-08-31T17:31:23.811Z,20.02
2022-08-31T17:32:23.758Z,20.03
2022-08-31T17:33:23.776Z,20.03
2022-08-31T17:34:23.756Z,20.01
2022-08-31T17:35:23.759Z,20.03
2022-08-31T17:36:23.716Z,19.92
2022-08-31T17:37:23.696Z,19.91
2022-08-31T17:38:23.713Z,19.99
2022-08-31T17:39:23.660Z,19.95
2022-08-31T17:40:23.671Z,19.99
2022-08-31T17:41:23.649Z,19.98
2022-08-31T17:42:23.629Z,20.03
2022-08-31T17:43:25.250Z,20.06
2022-08-31T17:44:23.610Z,20.01
2022-08-31T17:45:24.688Z,20.10
2022-08-31T17:46:23.610Z,19.98
2022-08-31T17:47:29.982Z,19.98
2022-08-31T17:49:13.936Z,19.76
2022-08-31T17:50:13.757Z,19.76
2022-08-31T17:51:13.766Z,19.63
2022-08-31T17:52:13.713Z,19.69
2022-08-31T17:53:13.521Z,19.69
2022-08-31T17:54:13.762Z,19.78
2022-08-31T17:55:13.550Z,19.63
2022-08-31T17:56:13.477Z,19.73
2022-08-31T17:57:13.479Z,19.68
2022-08-31T17:58:13.458Z,19.66
2022-08-31T17:59:13.467Z,19.77
2022-08-31T18:00:13.432Z,19.77
2022-08-31T18:01:13.514Z,19.71
2022-08-31T18:02:13.406Z,19.73
2022-08-31T18:03:13.402Z,19.73
2022-08-31T18:04:13.443Z,19.50
2022-08-31T18:05:13.389Z,19.37
2022-08-31T18:06:13.359Z,19.41
2022-08-31T18:07:13.366Z,19.33
2022-08-31T18:08:13.330Z,19.22
2022-08-31T18:09:13.342Z,19.29
2022-08-31T18:10:13.308Z,19.33
2022-08-31T18:11:13.311Z,19.36
2022-08-31T18:12:13.316Z,19.32
2022-08-31T18:13:13.268Z,19.32
2022-08-31T18:14:13.259Z,19.43
2022-08-31T18:15:13.261Z,19.46
2022-08-31T18:16:13.300Z,19.50
2022-08-31T18:17:13.244Z,19.44
2022-08-31T18:18:13.258Z,19.55
2022-08-31T18:19:13.208Z,19.58
2022-08-31T18:20:13.186Z,19.56
2022-08-31T18:21:13.178Z,19.65
2022-08-31T18:22:13.162Z,19.55
2022-08-31T18:23:13.160Z,19.51
2022-08-31T18:24:13.182Z,19.51
2022-08-31T18:25:13.133Z,19.54
2022-08-31T18:26:13.112Z,19.50
2022-08-31T18:27:13.120Z,19.47
2022-08-31T18:28:13.110Z,19.51
2022-08-31T18:29:16.626Z,19.46
2022-08-31T18:30:13.064Z,19.31
2022-08-31T18:31:13.073Z,19.39
2022-08-31T18:32:13.054Z,19.37
2022-08-31T18:33:15.063Z,19.40
2022-08-31T18:34:13.757Z,19.39
2022-08-31T18:35:14.706Z,19.46
2022-08-31T18:36:13.005Z,19.44
2022-08-31T18:37:14.217Z,19.33
2022-08-31T18:38:14.119Z,19.40
2022-08-31T18:39:22.678Z,19.32
2022-08-31T18:40:14.138Z,19.37
2022-08-31T18:41:14.085Z,19.37
2022-08-31T18:42:14.081Z,19.32
2022-08-31T18:43:14.035Z,19.21
2022-08-31T18:44:14.081Z,19.16
2022-08-31T18:45:14.038Z,19.14
2022-08-31T18:46:14.073Z,19.16
2022-08-31T18:47:14.021Z,19.02
2022-08-31T18:48:35.029Z,19.13
2022-08-31T18:49:16.022Z,19.10
2022-08-31T18:50:13.987Z,19.14
2022-08-31T18:51:18.993Z,19.13
2022-08-31T18:52:13.952Z,19.13
2022-08-31T18:53:15.380Z,18.98
2022-08-31T18:54:13.935Z,19.08
2022-08-31T18:55:13.952Z,19.19
2022-08-31T18:56:13.896Z,19.21
2022-08-31T18:57:13.900Z,19.18
2022-08-31T18:58:13.888Z,19.19
2022-08-31T18:59:13.898Z,19.28
2022-08-31T19:00:13.900Z,19.16
2022-08-31T19:01:13.931Z,19.11
2022-08-31T19:02:13.972Z,18.85
2022-08-31T19:03:14.014Z,18.94
2022-08-31T19:04:14.547Z,18.92
2022-08-31T19:05:13.838Z,19.02
2022-08-31T19:06:13.821Z,18.90
2022-08-31T19:07:13.774Z,18.85
2022-08-31T19:08:13.771Z,18.82
2022-08-31T19:09:13.762Z,18.84
2022-08-31T19:10:13.757Z,18.88
2022-08-31T19:11:13.735Z,18.88
2022-08-31T19:12:13.717Z,18.91
2022-08-31T19:13:13.702Z,18.84
2022-08-31T19:14:13.704Z,18.81
2022-08-31T19:15:13.735Z,18.70
2022-08-31T19:16:15.744Z,18.70
2022-08-31T19:17:13.725Z,18.65
2022-08-31T19:18:13.969Z,18.65
2022-08-31T19:19:13.639Z,18.65
2022-08-31T19:20:13.726Z,18.69
2022-08-31T19:21:13.640Z,18.65
2022-08-31T19:22:13.622Z,18.44
2022-08-31T19:23:18.345Z,18.26
2022-08-31T19:24:13.574Z,18.20
2022-08-31T19:25:18.422Z,18.12
2022-08-31T19:26:13.582Z,18.15
2022-08-31T19:27:13.559Z,18.10
2022-08-31T19:28:13.529Z,17.99
2022-08-31T19:29:13.529Z,17.92
2022-08-31T19:30:13.554Z,17.81
2022-08-31T19:31:13.578Z,17.78
2022-08-31T19:32:13.930Z,17.78
2022-08-31T19:33:14.449Z,17.81
2022-08-31T19:34:13.469Z,17.74
2022-08-31T19:35:13.453Z,17.74
2022-08-31T19:36:13.485Z,17.70
2022-08-31T19:37:13.454Z,17.75
2022-08-31T19:38:14.377Z,17.74
2022-08-31T19:39:13.444Z,17.70
2022-08-31T19:40:13.522Z,17.64
2022-08-31T19:41:13.737Z,17.51
2022-08-31T19:42:13.419Z,17.62
2022-08-31T19:43:44.880Z,17.68
2022-08-31T19:44:14.356Z,17.70
2022-08-31T19:45:42.358Z,17.62
2022-08-31T19:46:15.665Z,17.70
2022-08-31T19:47:24.407Z,17.74
2022-08-31T19:48:13.363Z,17.75
2022-08-31T19:49:14.314Z,17.89
2022-08-31T19:50:13.930Z,17.71
2022-08-31T19:51:14.304Z,17.58
2022-08-31T19:52:13.362Z,17.51
2022-08-31T19:53:13.723Z,17.59
2022-08-31T19:54:13.295Z,17.52
2022-08-31T19:55:13.259Z,17.59
2022-08-31T19:56:13.224Z,17.64
2022-08-31T19:57:13.267Z,17.68
2022-08-31T19:58:13.211Z,17.77
2022-08-31T19:59:13.206Z,17.79
2022-08-31T20:00:13.184Z,17.89
2022-08-31T20:01:13.186Z,17.93
2022-08-31T20:02:13.292Z,17.92
2022-08-31T20:03:13.154Z,17.96
2022-08-31T20:04:16.458Z,17.97
2022-08-31T20:05:13.143Z,17.93
2022-08-31T20:06:13.122Z,18.10
2022-08-31T20:07:13.164Z,18.12
2022-08-31T20:08:13.155Z,18.12
2022-08-31T20:09:13.100Z,18.25
2022-08-31T20:10:13.092Z,18.25
2022-08-31T20:11:13.083Z,18.21
2022-08-31T20:12:13.105Z,18.15
2022-08-31T20:13:13.119Z,18.20
2022-08-31T20:14:13.074Z,18.21
2022-08-31T20:15:13.029Z,18.23
2022-08-31T20:16:13.093Z,18.14
2022-08-31T20:17:13.020Z,18.20
2022-08-31T20:18:13.083Z,18.20
2022-08-31T20:19:12.975Z,18.29
2022-08-31T20:20:12.977Z,18.11
2022-08-31T20:21:13.045Z,18.25
2022-08-31T20:22:12.992Z,18.18
2022-08-31T20:23:13.025Z,18.29
2022-08-31T20:24:12.943Z,18.29
2022-08-31T20:25:18.026Z,18.17
2022-08-31T20:26:12.915Z,18.23
2022-08-31T20:27:13.609Z,18.18
2022-08-31T20:28:12.920Z,18.05
2022-08-31T20:29:12.862Z,18.10
2022-08-31T20:30:12.860Z,18.03
2022-08-31T20:31:12.875Z,17.96
2022-08-31T20:32:12.881Z,17.90
2022-08-31T20:33:12.894Z,17.78
2022-08-31T20:34:18.571Z,17.82
2022-08-31T20:35:12.837Z,17.79
2022-08-31T20:36:13.433Z,17.97
2022-08-31T20:37:12.816Z,17.90
2022-08-31T20:38:12.818Z,17.95
2022-08-31T20:39:13.790Z,17.95
2022-08-31T20:40:12.769Z,17.89
2022-08-31T20:41:12.738Z,17.95
2022-08-31T20:42:12.889Z,17.89
2022-08-31T20:43:12.885Z,17.93
2022-08-31T20:44:12.779Z,17.89
2022-08-31T20:45:12.741Z,17.99
2022-08-31T20:46:12.715Z,17.93
2022-08-31T20:47:12.742Z,17.89
2022-08-31T20:48:12.701Z,17.77
2022-08-31T20:49:13.661Z,17.66
2022-08-31T20:50:12.661Z,17.74
2022-08-31T20:51:12.658Z,17.55
2022-08-31T20:52:12.654Z,17.70
2022-08-31T20:53:12.596Z,17.58
2022-08-31T20:54:12.651Z,17.49
2022-08-31T20:55:12.613Z,17.52
2022-08-31T20:56:16.930Z,17.56
2022-08-31T20:57:12.579Z,17.55
2022-08-31T20:58:12.595Z,17.55
2022-08-31T20:59:12.577Z,17.46
2022-08-31T21:00:12.535Z,17.52
2022-08-31T21:01:12.576Z,17.44
2022-08-31T21:02:12.638Z,17.40
2022-08-31T21:03:12.659Z,17.44
2022-08-31T21:04:12.512Z,17.31
2022-08-31T21:06:12.502Z,17.40
2022-08-31T21:07:12.519Z,17.31
2022-08-31T21:08:12.522Z,17.31
2022-08-31T21:09:12.519Z,17.19
2022-08-31T21:10:12.443Z,17.33
2022-08-31T21:11:12.446Z,17.33
2022-08-31T21:12:14.264Z,17.41
2022-08-31T21:13:12.520Z,17.33
2022-08-31T21:14:13.517Z,17.18
2022-08-31T21:15:12.425Z,17.08
2022-08-31T21:16:12.649Z,17.01
2022-08-31T21:17:12.389Z,17.01